sensor_id;sensor_type;location;lat;lon;timestamp;P1;durP1;ratioP1;P2;durP2;ratioP2
51985;SDS011;38002;53.296;6.600;2022-12-24T00:02:06;19.55;;;8.57;;
51985;SDS011;38002;53.296;6.600;2022-12-24T00:07:06;14.60;;;8.80;;
51985;SDS011;38002;53.296;6.600;2022-12-24T00:12:07;16.55;;;9.48;;
51985;SDS011;38002;53.296;6.600;2022-12-24T00:17:07;15.27;;;8.73;;
51985;SDS011;38002;53.296;6.600;2022-12-24T00:22:07;15.77;;;8.38;;
51985;SDS011;38002;53.296;6.600;2022-12-24T00:27:08;17.40;;;8.10;;
51985;SDS011;38002;53.296;6.600;2022-12-24T00:32:08;20.65;;;8.48;;
51985;SDS011;38002;53.296;6.600;2022-12-24T00:37:09;15.63;;;8.05;;
51985;SDS011;38002;53.296;6.600;2022-12-24T00:42:09;15.52;;;7.90;;
51985;SDS011;38002;53.296;6.600;2022-12-24T00:47:10;18.17;;;8.48;;
51985;SDS011;38002;53.296;6.600;2022-12-24T00:52:10;18.02;;;9.32;;
51985;SDS011;38002;53.296;6.600;2022-12-24T00:57:11;22.02;;;10.30;;
51985;SDS011;38002;53.296;6.600;2022-12-24T01:02:11;20.70;;;9.60;;
51985;SDS011;38002;53.296;6.600;2022-12-24T01:07:11;17.48;;;8.65;;
51985;SDS011;38002;53.296;6.600;2022-12-24T01:12:12;20.05;;;10.55;;
51985;SDS011;38002;53.296;6.600;2022-12-24T01:17:12;17.73;;;8.90;;
51985;SDS011;38002;53.296;6.600;2022-12-24T01:22:13;15.20;;;8.65;;
51985;SDS011;38002;53.296;6.600;2022-12-24T01:27:13;16.58;;;9.63;;
51985;SDS011;38002;53.296;6.600;2022-12-24T01:32:14;16.08;;;9.45;;
51985;SDS011;38002;53.296;6.600;2022-12-24T01:37:14;16.60;;;8.63;;
51985;SDS011;38002;53.296;6.600;2022-12-24T01:42:19;21.35;;;10.20;;
51985;SDS011;38002;53.296;6.600;2022-12-24T01:47:39;17.65;;;9.70;;
51985;SDS011;38002;53.296;6.600;2022-12-24T01:52:39;19.17;;;10.70;;
51985;SDS011;38002;53.296;6.600;2022-12-24T01:57:54;17.85;;;9.95;;
51985;SDS011;38002;53.296;6.600;2022-12-24T02:02:57;19.40;;;9.82;;
51985;SDS011;38002;53.296;6.600;2022-12-24T02:07:58;18.60;;;9.73;;
51985;SDS011;38002;53.296;6.600;2022-12-24T02:13:01;17.13;;;9.05;;
51985;SDS011;38002;53.296;6.600;2022-12-24T02:18:19;21.38;;;11.80;;
51985;SDS011;38002;53.296;6.600;2022-12-24T02:34:03;26.48;;;10.98;;
51985;SDS011;38002;53.296;6.600;2022-12-24T02:39:10;18.13;;;10.73;;
51985;SDS011;38002;53.296;6.600;2022-12-24T02:44:18;18.60;;;11.10;;
51985;SDS011;38002;53.296;6.600;2022-12-24T02:49:21;19.38;;;10.50;;
51985;SDS011;38002;53.296;6.600;2022-12-24T02:54:21;22.48;;;10.57;;
51985;SDS011;38002;53.296;6.600;2022-12-24T03:15:20;19.45;;;11.57;;
51985;SDS011;38002;53.296;6.600;2022-12-24T03:20:30;21.02;;;10.70;;
51985;SDS011;38002;53.296;6.600;2022-12-24T03:25:34;20.13;;;10.20;;
51985;SDS011;38002;53.296;6.600;2022-12-24T03:30:40;19.13;;;9.77;;
51985;SDS011;38002;53.296;6.600;2022-12-24T03:35:43;23.25;;;11.32;;
51985;SDS011;38002;53.296;6.600;2022-12-24T03:40:44;23.47;;;11.47;;
51985;SDS011;38002;53.296;6.600;2022-12-24T03:45:44;20.23;;;11.02;;
51985;SDS011;38002;53.296;6.600;2022-12-24T03:50:45;21.67;;;11.77;;
51985;SDS011;38002;53.296;6.600;2022-12-24T03:55:45;21.92;;;11.98;;
51985;SDS011;38002;53.296;6.600;2022-12-24T04:00:46;23.88;;;12.75;;
51985;SDS011;38002;53.296;6.600;2022-12-24T04:05:46;27.38;;;12.32;;
51985;SDS011;38002;53.296;6.600;2022-12-24T04:10:47;25.27;;;13.30;;
51985;SDS011;38002;53.296;6.600;2022-12-24T04:21:24;29.20;;;12.95;;
51985;SDS011;38002;53.296;6.600;2022-12-24T04:26:24;22.00;;;12.23;;
51985;SDS011;38002;53.296;6.600;2022-12-24T04:31:24;23.33;;;11.98;;
51985;SDS011;38002;53.296;6.600;2022-12-24T04:36:25;24.35;;;11.30;;
51985;SDS011;38002;53.296;6.600;2022-12-24T04:41:25;23.17;;;10.93;;
51985;SDS011;38002;53.296;6.600;2022-12-24T04:46:26;28.13;;;9.80;;
51985;SDS011;38002;53.296;6.600;2022-12-24T04:51:30;22.90;;;8.65;;
51985;SDS011;38002;53.296;6.600;2022-12-24T04:56:31;23.77;;;8.95;;
51985;SDS011;38002;53.296;6.600;2022-12-24T05:01:32;28.52;;;7.80;;
51985;SDS011;38002;53.296;6.600;2022-12-24T05:06:32;41.53;;;7.95;;
51985;SDS011;38002;53.296;6.600;2022-12-24T05:11:33;28.00;;;6.80;;
51985;SDS011;38002;53.296;6.600;2022-12-24T05:16:34;38.90;;;7.53;;
51985;SDS011;38002;53.296;6.600;2022-12-24T05:21:34;28.13;;;5.25;;
51985;SDS011;38002;53.296;6.600;2022-12-24T05:26:36;39.42;;;4.70;;
51985;SDS011;38002;53.296;6.600;2022-12-24T05:31:52;36.28;;;5.40;;
51985;SDS011;38002;53.296;6.600;2022-12-24T05:36:52;38.03;;;5.18;;
51985;SDS011;38002;53.296;6.600;2022-12-24T05:41:52;33.25;;;4.28;;
51985;SDS011;38002;53.296;6.600;2022-12-24T05:46:53;49.63;;;5.20;;
51985;SDS011;38002;53.296;6.600;2022-12-24T05:51:53;27.33;;;3.72;;
51985;SDS011;38002;53.296;6.600;2022-12-24T05:56:54;39.60;;;6.07;;
51985;SDS011;38002;53.296;6.600;2022-12-24T06:01:54;40.90;;;5.38;;
51985;SDS011;38002;53.296;6.600;2022-12-24T06:06:54;38.58;;;5.80;;
51985;SDS011;38002;53.296;6.600;2022-12-24T06:11:55;39.47;;;3.95;;
51985;SDS011;38002;53.296;6.600;2022-12-24T06:16:55;40.25;;;4.50;;
51985;SDS011;38002;53.296;6.600;2022-12-24T06:21:56;43.88;;;4.93;;
51985;SDS011;38002;53.296;6.600;2022-12-24T06:26:56;31.15;;;4.43;;
51985;SDS011;38002;53.296;6.600;2022-12-24T06:31:56;42.50;;;4.50;;
51985;SDS011;38002;53.296;6.600;2022-12-24T06:36:57;45.90;;;5.32;;
51985;SDS011;38002;53.296;6.600;2022-12-24T06:41:57;27.17;;;3.50;;
51985;SDS011;38002;53.296;6.600;2022-12-24T06:46:58;31.33;;;4.55;;
51985;SDS011;38002;53.296;6.600;2022-12-24T06:51:58;35.45;;;5.40;;
51985;SDS011;38002;53.296;6.600;2022-12-24T06:56:59;40.83;;;4.93;;
51985;SDS011;38002;53.296;6.600;2022-12-24T07:01:59;38.97;;;4.07;;
51985;SDS011;38002;53.296;6.600;2022-12-24T07:06:59;30.77;;;4.45;;
51985;SDS011;38002;53.296;6.600;2022-12-24T07:12:00;41.63;;;5.38;;
51985;SDS011;38002;53.296;6.600;2022-12-24T07:17:00;38.92;;;5.20;;
51985;SDS011;38002;53.296;6.600;2022-12-24T07:22:01;31.00;;;4.07;;
51985;SDS011;38002;53.296;6.600;2022-12-24T07:27:01;35.08;;;5.05;;
51985;SDS011;38002;53.296;6.600;2022-12-24T07:32:02;44.15;;;4.80;;
51985;SDS011;38002;53.296;6.600;2022-12-24T07:37:02;36.20;;;4.28;;
51985;SDS011;38002;53.296;6.600;2022-12-24T07:42:03;29.92;;;4.32;;
51985;SDS011;38002;53.296;6.600;2022-12-24T07:47:06;27.92;;;3.92;;
51985;SDS011;38002;53.296;6.600;2022-12-24T07:52:07;30.75;;;3.70;;
51985;SDS011;38002;53.296;6.600;2022-12-24T07:57:07;44.00;;;4.75;;
51985;SDS011;38002;53.296;6.600;2022-12-24T08:02:09;26.38;;;4.00;;
51985;SDS011;38002;53.296;6.600;2022-12-24T08:07:10;26.75;;;3.72;;
51985;SDS011;38002;53.296;6.600;2022-12-24T08:12:10;31.85;;;4.00;;
51985;SDS011;38002;53.296;6.600;2022-12-24T08:17:11;28.17;;;4.30;;
51985;SDS011;38002;53.296;6.600;2022-12-24T08:22:11;28.90;;;3.70;;
51985;SDS011;38002;53.296;6.600;2022-12-24T08:27:12;34.38;;;4.00;;
51985;SDS011;38002;53.296;6.600;2022-12-24T08:32:12;21.75;;;3.38;;
51985;SDS011;38002;53.296;6.600;2022-12-24T08:37:12;26.30;;;3.88;;
51985;SDS011;38002;53.296;6.600;2022-12-24T08:42:13;27.42;;;3.72;;
51985;SDS011;38002;53.296;6.600;2022-12-24T08:47:13;32.50;;;4.55;;
51985;SDS011;38002;53.296;6.600;2022-12-24T08:52:14;26.77;;;4.45;;
51985;SDS011;38002;53.296;6.600;2022-12-24T08:57:14;41.35;;;4.55;;
51985;SDS011;38002;53.296;6.600;2022-12-24T09:02:15;41.80;;;5.78;;
51985;SDS011;38002;53.296;6.600;2022-12-24T09:07:15;32.05;;;4.60;;
51985;SDS011;38002;53.296;6.600;2022-12-24T09:12:16;41.47;;;5.07;;
51985;SDS011;38002;53.296;6.600;2022-12-24T09:17:16;31.92;;;4.80;;
51985;SDS011;38002;53.296;6.600;2022-12-24T09:22:17;25.38;;;3.90;;
51985;SDS011;38002;53.296;6.600;2022-12-24T09:27:17;24.05;;;4.45;;
51985;SDS011;38002;53.296;6.600;2022-12-24T09:32:18;29.08;;;4.88;;
51985;SDS011;38002;53.296;6.600;2022-12-24T09:37:18;27.65;;;4.10;;
51985;SDS011;38002;53.296;6.600;2022-12-24T09:47:43;29.05;;;4.43;;
51985;SDS011;38002;53.296;6.600;2022-12-24T09:52:44;30.30;;;4.78;;
51985;SDS011;38002;53.296;6.600;2022-12-24T09:57:45;33.03;;;4.05;;
51985;SDS011;38002;53.296;6.600;2022-12-24T10:02:49;30.85;;;5.32;;
51985;SDS011;38002;53.296;6.600;2022-12-24T10:07:52;25.95;;;4.68;;
51985;SDS011;38002;53.296;6.600;2022-12-24T10:13:09;29.08;;;4.10;;
51985;SDS011;38002;53.296;6.600;2022-12-24T10:24:33;44.22;;;5.63;;
51985;SDS011;38002;53.296;6.600;2022-12-24T10:29:53;42.38;;;6.60;;
51985;SDS011;38002;53.296;6.600;2022-12-24T10:40:03;33.35;;;4.45;;
51985;SDS011;38002;53.296;6.600;2022-12-24T10:45:05;33.47;;;4.10;;
51985;SDS011;38002;53.296;6.600;2022-12-24T10:55:25;22.67;;;4.18;;
51985;SDS011;38002;53.296;6.600;2022-12-24T11:00:27;28.85;;;4.95;;
51985;SDS011;38002;53.296;6.600;2022-12-24T11:05:29;33.27;;;4.13;;
51985;SDS011;38002;53.296;6.600;2022-12-24T11:10:32;32.40;;;6.40;;
51985;SDS011;38002;53.296;6.600;2022-12-24T11:15:36;22.38;;;4.75;;
51985;SDS011;38002;53.296;6.600;2022-12-24T11:20:36;31.73;;;4.57;;
51985;SDS011;38002;53.296;6.600;2022-12-24T11:25:37;19.00;;;4.18;;
51985;SDS011;38002;53.296;6.600;2022-12-24T11:30:40;30.80;;;4.57;;
51985;SDS011;38002;53.296;6.600;2022-12-24T11:35:44;25.60;;;5.13;;
51985;SDS011;38002;53.296;6.600;2022-12-24T11:40:48;27.23;;;3.50;;
51985;SDS011;38002;53.296;6.600;2022-12-24T11:45:57;24.73;;;3.75;;
51985;SDS011;38002;53.296;6.600;2022-12-24T11:51:22;27.15;;;4.88;;
51985;SDS011;38002;53.296;6.600;2022-12-24T12:07:12;23.38;;;3.85;;
51985;SDS011;38002;53.296;6.600;2022-12-24T12:12:23;16.45;;;2.35;;
51985;SDS011;38002;53.296;6.600;2022-12-24T12:17:35;28.83;;;3.28;;
51985;SDS011;38002;53.296;6.600;2022-12-24T12:28:02;24.50;;;3.08;;
51985;SDS011;38002;53.296;6.600;2022-12-24T12:33:18;22.88;;;3.78;;
51985;SDS011;38002;53.296;6.600;2022-12-24T12:38:25;10.27;;;2.42;;
51985;SDS011;38002;53.296;6.600;2022-12-24T13:00:07;19.27;;;2.55;;
51985;SDS011;38002;53.296;6.600;2022-12-24T13:15:22;21.77;;;2.78;;
51985;SDS011;38002;53.296;6.600;2022-12-24T13:20:27;17.63;;;3.22;;
51985;SDS011;38002;53.296;6.600;2022-12-24T13:25:33;17.40;;;3.38;;
51985;SDS011;38002;53.296;6.600;2022-12-24T13:30:42;17.20;;;2.75;;
51985;SDS011;38002;53.296;6.600;2022-12-24T13:35:56;14.80;;;2.08;;
51985;SDS011;38002;53.296;6.600;2022-12-24T13:57:26;14.50;;;2.35;;
51985;SDS011;38002;53.296;6.600;2022-12-24T14:02:36;17.42;;;2.63;;
51985;SDS011;38002;53.296;6.600;2022-12-24T14:07:47;16.13;;;2.42;;
51985;SDS011;38002;53.296;6.600;2022-12-24T14:12:49;19.90;;;3.03;;
51985;SDS011;38002;53.296;6.600;2022-12-24T14:17:51;7.75;;;2.22;;
51985;SDS011;38002;53.296;6.600;2022-12-24T14:22:52;14.63;;;2.70;;
51985;SDS011;38002;53.296;6.600;2022-12-24T14:28:27;15.05;;;2.22;;
51985;SDS011;38002;53.296;6.600;2022-12-24T14:33:33;9.90;;;2.30;;
51985;SDS011;38002;53.296;6.600;2022-12-24T14:38:34;15.60;;;2.50;;
51985;SDS011;38002;53.296;6.600;2022-12-24T14:49:17;18.33;;;3.22;;
51985;SDS011;38002;53.296;6.600;2022-12-24T14:59:41;10.77;;;2.50;;
51985;SDS011;38002;53.296;6.600;2022-12-24T15:05:00;17.15;;;3.28;;
51985;SDS011;38002;53.296;6.600;2022-12-24T15:10:24;14.27;;;2.85;;
51985;SDS011;38002;53.296;6.600;2022-12-24T15:15:43;16.48;;;2.88;;
51985;SDS011;38002;53.296;6.600;2022-12-24T15:20:47;17.42;;;3.83;;
51985;SDS011;38002;53.296;6.600;2022-12-24T15:25:50;11.68;;;2.72;;
51985;SDS011;38002;53.296;6.600;2022-12-24T15:31:03;17.95;;;3.13;;
51985;SDS011;38002;53.296;6.600;2022-12-24T15:36:14;16.52;;;2.35;;
51985;SDS011;38002;53.296;6.600;2022-12-24T15:41:18;22.42;;;3.40;;
51985;SDS011;38002;53.296;6.600;2022-12-24T15:46:24;17.73;;;3.35;;
51985;SDS011;38002;53.296;6.600;2022-12-24T15:51:33;20.40;;;3.35;;
51985;SDS011;38002;53.296;6.600;2022-12-24T15:56:37;15.45;;;3.03;;
51985;SDS011;38002;53.296;6.600;2022-12-24T16:01:43;23.63;;;3.55;;
51985;SDS011;38002;53.296;6.600;2022-12-24T16:12:01;12.32;;;2.90;;
51985;SDS011;38002;53.296;6.600;2022-12-24T16:17:09;15.65;;;2.53;;
51985;SDS011;38002;53.296;6.600;2022-12-24T16:22:19;15.75;;;3.13;;
51985;SDS011;38002;53.296;6.600;2022-12-24T16:27:37;13.10;;;2.70;;
51985;SDS011;38002;53.296;6.600;2022-12-24T16:32:38;17.27;;;2.88;;
51985;SDS011;38002;53.296;6.600;2022-12-24T16:37:41;15.50;;;4.28;;
51985;SDS011;38002;53.296;6.600;2022-12-24T16:42:41;11.23;;;2.72;;
51985;SDS011;38002;53.296;6.600;2022-12-24T16:48:00;15.45;;;2.90;;
51985;SDS011;38002;53.296;6.600;2022-12-24T16:53:01;22.08;;;3.80;;
51985;SDS011;38002;53.296;6.600;2022-12-24T16:58:02;18.13;;;3.30;;
51985;SDS011;38002;53.296;6.600;2022-12-24T17:03:02;14.02;;;3.22;;
51985;SDS011;38002;53.296;6.600;2022-12-24T17:08:03;15.93;;;3.95;;
51985;SDS011;38002;53.296;6.600;2022-12-24T17:13:05;17.70;;;3.17;;
51985;SDS011;38002;53.296;6.600;2022-12-24T17:18:06;21.08;;;4.90;;
51985;SDS011;38002;53.296;6.600;2022-12-24T17:23:06;15.85;;;4.15;;
51985;SDS011;38002;53.296;6.600;2022-12-24T17:28:06;16.23;;;4.82;;
51985;SDS011;38002;53.296;6.600;2022-12-24T17:33:07;22.90;;;6.13;;
51985;SDS011;38002;53.296;6.600;2022-12-24T17:38:08;23.33;;;5.20;;
51985;SDS011;38002;53.296;6.600;2022-12-24T17:43:08;18.45;;;4.70;;
51985;SDS011;38002;53.296;6.600;2022-12-24T17:48:09;10.23;;;4.03;;
51985;SDS011;38002;53.296;6.600;2022-12-24T17:53:10;46.13;;;10.02;;
51985;SDS011;38002;53.296;6.600;2022-12-24T17:58:10;36.40;;;18.80;;
51985;SDS011;38002;53.296;6.600;2022-12-24T18:03:11;20.05;;;4.78;;
51985;SDS011;38002;53.296;6.600;2022-12-24T18:08:12;19.17;;;6.00;;
51985;SDS011;38002;53.296;6.600;2022-12-24T18:13:13;25.70;;;4.55;;
51985;SDS011;38002;53.296;6.600;2022-12-24T18:18:14;19.75;;;3.75;;
51985;SDS011;38002;53.296;6.600;2022-12-24T18:23:14;19.67;;;4.45;;
51985;SDS011;38002;53.296;6.600;2022-12-24T18:28:15;19.13;;;4.45;;
51985;SDS011;38002;53.296;6.600;2022-12-24T18:33:15;21.80;;;5.28;;
51985;SDS011;38002;53.296;6.600;2022-12-24T18:38:15;27.33;;;4.72;;
51985;SDS011;38002;53.296;6.600;2022-12-24T18:43:16;25.33;;;6.85;;
51985;SDS011;38002;53.296;6.600;2022-12-24T18:48:17;25.15;;;5.60;;
51985;SDS011;38002;53.296;6.600;2022-12-24T18:53:17;12.27;;;4.82;;
51985;SDS011;38002;53.296;6.600;2022-12-24T18:58:18;11.30;;;3.92;;
51985;SDS011;38002;53.296;6.600;2022-12-24T19:03:18;15.45;;;4.03;;
51985;SDS011;38002;53.296;6.600;2022-12-24T19:08:19;7.97;;;3.20;;
51985;SDS011;38002;53.296;6.600;2022-12-24T19:13:19;21.10;;;5.82;;
51985;SDS011;38002;53.296;6.600;2022-12-24T19:18:20;24.42;;;4.65;;
51985;SDS011;38002;53.296;6.600;2022-12-24T19:23:20;13.15;;;3.92;;
51985;SDS011;38002;53.296;6.600;2022-12-24T19:28:21;30.05;;;8.77;;
51985;SDS011;38002;53.296;6.600;2022-12-24T19:33:21;18.00;;;5.40;;
51985;SDS011;38002;53.296;6.600;2022-12-24T19:38:22;16.55;;;5.20;;
51985;SDS011;38002;53.296;6.600;2022-12-24T19:43:22;23.83;;;6.63;;
51985;SDS011;38002;53.296;6.600;2022-12-24T19:48:22;36.10;;;7.10;;
51985;SDS011;38002;53.296;6.600;2022-12-24T19:53:23;26.40;;;5.47;;
51985;SDS011;38002;53.296;6.600;2022-12-24T19:58:24;24.58;;;5.28;;
51985;SDS011;38002;53.296;6.600;2022-12-24T20:03:25;21.90;;;4.60;;
51985;SDS011;38002;53.296;6.600;2022-12-24T20:08:25;19.75;;;4.82;;
51985;SDS011;38002;53.296;6.600;2022-12-24T20:13:26;28.63;;;5.20;;
51985;SDS011;38002;53.296;6.600;2022-12-24T20:18:26;67.45;;;24.33;;
51985;SDS011;38002;53.296;6.600;2022-12-24T20:23:27;26.30;;;6.10;;
51985;SDS011;38002;53.296;6.600;2022-12-24T20:28:28;23.40;;;6.40;;
51985;SDS011;38002;53.296;6.600;2022-12-24T20:33:30;35.30;;;5.82;;
51985;SDS011;38002;53.296;6.600;2022-12-24T20:38:31;27.92;;;6.25;;
51985;SDS011;38002;53.296;6.600;2022-12-24T20:43:31;34.83;;;6.97;;
51985;SDS011;38002;53.296;6.600;2022-12-24T20:48:32;34.35;;;6.65;;
51985;SDS011;38002;53.296;6.600;2022-12-24T20:53:33;30.33;;;7.10;;
51985;SDS011;38002;53.296;6.600;2022-12-24T20:58:35;34.27;;;6.90;;
51985;SDS011;38002;53.296;6.600;2022-12-24T21:03:35;38.45;;;6.13;;
51985;SDS011;38002;53.296;6.600;2022-12-24T21:08:37;22.13;;;6.32;;
51985;SDS011;38002;53.296;6.600;2022-12-24T21:13:37;28.38;;;7.07;;
51985;SDS011;38002;53.296;6.600;2022-12-24T21:18:38;25.75;;;8.73;;
51985;SDS011;38002;53.296;6.600;2022-12-24T21:23:38;35.40;;;9.02;;
51985;SDS011;38002;53.296;6.600;2022-12-24T21:28:39;30.67;;;12.27;;
51985;SDS011;38002;53.296;6.600;2022-12-24T21:33:40;43.00;;;12.43;;
51985;SDS011;38002;53.296;6.600;2022-12-24T21:38:40;40.47;;;9.98;;
51985;SDS011;38002;53.296;6.600;2022-12-24T21:43:41;37.13;;;9.75;;
51985;SDS011;38002;53.296;6.600;2022-12-24T21:48:42;36.13;;;9.43;;
51985;SDS011;38002;53.296;6.600;2022-12-24T21:54:02;39.45;;;10.50;;
51985;SDS011;38002;53.296;6.600;2022-12-24T21:59:21;45.28;;;10.93;;
51985;SDS011;38002;53.296;6.600;2022-12-24T22:04:23;27.23;;;9.70;;
51985;SDS011;38002;53.296;6.600;2022-12-24T22:09:23;33.45;;;9.18;;
51985;SDS011;38002;53.296;6.600;2022-12-24T22:14:42;42.22;;;9.32;;
51985;SDS011;38002;53.296;6.600;2022-12-24T22:19:43;47.60;;;12.30;;
51985;SDS011;38002;53.296;6.600;2022-12-24T22:24:43;40.75;;;11.35;;
51985;SDS011;38002;53.296;6.600;2022-12-24T22:29:44;41.78;;;10.15;;
51985;SDS011;38002;53.296;6.600;2022-12-24T22:34:44;47.65;;;11.90;;
51985;SDS011;38002;53.296;6.600;2022-12-24T22:39:45;43.72;;;12.23;;
51985;SDS011;38002;53.296;6.600;2022-12-24T22:44:46;54.63;;;13.82;;
51985;SDS011;38002;53.296;6.600;2022-12-24T22:49:47;56.55;;;13.05;;
51985;SDS011;38002;53.296;6.600;2022-12-24T22:54:48;47.45;;;14.98;;
51985;SDS011;38002;53.296;6.600;2022-12-24T22:59:48;54.80;;;15.30;;
51985;SDS011;38002;53.296;6.600;2022-12-24T23:04:49;50.13;;;15.38;;
51985;SDS011;38002;53.296;6.600;2022-12-24T23:09:49;51.63;;;14.05;;
51985;SDS011;38002;53.296;6.600;2022-12-24T23:14:50;65.00;;;17.08;;
51985;SDS011;38002;53.296;6.600;2022-12-24T23:19:56;61.78;;;17.60;;
51985;SDS011;38002;53.296;6.600;2022-12-24T23:24:56;68.82;;;17.85;;
51985;SDS011;38002;53.296;6.600;2022-12-24T23:29:57;72.95;;;17.73;;
51985;SDS011;38002;53.296;6.600;2022-12-24T23:34:57;54.55;;;16.65;;
51985;SDS011;38002;53.296;6.600;2022-12-24T23:39:58;60.40;;;18.27;;
51985;SDS011;38002;53.296;6.600;2022-12-24T23:44:58;52.97;;;16.60;;
51985;SDS011;38002;53.296;6.600;2022-12-24T23:49:58;40.10;;;13.13;;
51985;SDS011;38002;53.296;6.600;2022-12-24T23:54:59;42.80;;;14.05;;
51985;SDS011;38002;53.296;6.600;2022-12-24T23:59:59;64.00;;;15.48;;
